FW4333 Weather Reports


time (UTC)temp
F
wind
direction
speed
knots
gust
knots
rain 1hr
in
rain 24hr
in
rain mn
in
humidity
%
barometer
mb
20190917224535 44 319 7.0 14.8 0.00 0.17 0.00 88 1002.7
20190917223532 44 321 6.1 13.0 0.00 0.17 0.00 89 1002.9
20190917222528 45 330 7.8 13.9 0.00 0.17 0.00 89 1002.8
20190917221523 44 341 7.0 12.2 0.00 0.17 0.00 91 1002.9
20190917220519 44 270 5.2 9.6 0.00 0.17 0.00 92 1002.8
20190917215516 44 310 5.2 10.4 0.00 0.17 0.17 93 1002.8
20190917211100 45 286 5.2 13.9 0.00 0.17 0.17 97 1002.5
20190917210056 45 333 7.8 16.5 0.00 0.17 0.17 97 1002.5
20190917205052 45 298 5.2 10.4 0.00 0.17 0.17 97 1002.7
20190917204049 45 295 5.2 9.6 0.00 0.17 0.17 97 1002.7
20190917203045 45 304 6.1 10.4 0.00 0.17 0.17 97 1002.6
20190917202040 45 324 5.2 12.2 0.00 0.17 0.17 97 1002.6
20190917201037 45 309 6.1 13.0 0.00 0.17 0.17 97 1002.5
20190917200032 44 313 7.8 15.6 0.00 0.17 0.17 97 1002.5
20190917195028 44 295 5.2 10.4 0.00 0.17 0.17 97 1002.4
20190917194022 44 292 4.3 10.4 0.00 0.17 0.17 97 1002.3
20190917193019 44 267 3.5 7.8 0.00 0.17 0.17 97 1002.5
20190917192015 44 297 2.6 9.6 0.00 0.17 0.17 97 1002.5
20190917183059 45 275 0.9 3.5 0.04 0.17 0.17 97 1002.6
20190917182055 45 287 1.7 5.2 0.09 0.17 0.17 97 1003.2
20190917181052 45 323 4.3 7.8 0.15 0.15 0.15 97 1003.6
20190917180046 45 305 5.2 9.6 0.12 0.12 0.12 97 1003.4
20190917175043 45 348 4.3 7.8 0.12 0.12 0.12 97 1003.1
20190917174039 45 327 5.2 7.8 0.12 0.12 0.12 97 1003.2
20190917173036 46 343 9.6 16.5 0.12 0.12 0.12 94 1003.5
20190917172033 49 307 8.7 15.6 0.08 0.08 0.08 90 1003.2
20190917171028 50 328 3.5 9.6 0.00 0.00 0.00 87 1002.8
20190917170024 50 283 3.5 7.8 0.00 0.00 0.00 86 1002.5
20190917165021 50 328 3.5 7.8 0.00 0.00 0.00 83 1002.6
20190917164015 50 227 2.6 7.0 0.00 0.00 0.00 82 1002.4
20190917155557 50 305 7.0 13.0 0.00 0.00 0.00 77 1003.2
20190917154553 52 306 11.3 21.7 0.00 0.00 0.00 66 1003.3
20190917153549 54 318 15.6 30.4 0.00 0.00 0.00 58 1003.3
20190917152546 55 334 7.8 20.9 0.00 0.00 0.00 62 1002.7
20190917151542 55 292 5.2 12.2 0.00 0.00 0.00 61 1002.6
20190917150538 56 321 3.5 8.7 0.00 0.00 0.00 57 1002.5
20190917145534 56 320 3.5 12.2 0.00 0.00 0.00 55 1002.6
20190917144529 57 303 4.3 12.2 0.00 0.00 0.00 53 1002.7
20190917143526 57 329 4.3 10.4 0.00 0.00 0.00 53 1002.9
20190917142523 57 308 5.2 16.5 0.00 0.00 0.00 53 1003.1
20190917141519 57 273 4.3 11.3 0.00 0.00 0.00 52 1003.3
20190917140516 57 292 4.3 6.1 0.00 0.00 0.00 53 1003.4
20190917132058 56 303 4.3 10.4 0.00 0.00 0.00 55 1004.2
20190917131055 57 302 5.2 12.2 0.00 0.00 0.00 54 1004.2
20190917130052 57 284 5.2 11.3 0.00 0.00 0.00 54 1004.3
20190917125048 57 270 4.3 10.4 0.00 0.00 0.00 53 1004.5
20190917124045 57 323 5.2 12.2 0.00 0.00 0.00 55 1004.7
20190917123041 57 321 3.5 9.6 0.00 0.00 0.00 56 1004.9
20190917122036 56 283 5.2 11.3 0.00 0.00 0.00 56 1005.1
20190917121033 57 315 8.7 13.0 0.00 0.00 0.00 52 1005.2
20190917120029 57 281 5.2 9.6 0.00 0.00 0.00 51 1005.2
20190917115027 57 356 4.3 9.6 0.00 0.00 0.00 51 1005.3
20190917114022 57 304 6.1 13.0 0.00 0.00 0.00 50 1005.6
20190917113018 57 320 5.2 14.8 0.00 0.00 0.00 51 1005.8
20190917112015 57 287 4.3 12.2 0.00 0.00 0.00 52 1005.8
20190917103058 57 286 6.1 13.0 0.00 0.00 0.00 56 1006.4
20190917102054 56 288 5.2 11.3 0.00 0.00 0.00 62 1006.6
20190917101051 56 315 6.1 12.2 0.00 0.00 0.00 59 1006.7
20190917100047 56 293 6.1 16.5 0.00 0.00 0.00 58 1006.8
20190917095044 57 301 5.2 14.8 0.00 0.00 0.00 57 1006.9
20190917094040 56 312 5.2 8.7 0.00 0.00 0.00 59 1007.1
20190917093037 56 301 5.2 10.4 0.00 0.00 0.00 60 1007.3
20190917092033 56 296 4.3 12.2 0.00 0.00 0.00 61 1007.5
20190917091030 56 325 4.3 10.4 0.00 0.00 0.00 62 1007.6
20190917090026 56 288 5.2 13.0 0.00 0.00 0.00 62 1007.5
20190917085023 55 290 5.2 11.3 0.00 0.00 0.00 64 1007.6
20190917084020 55 301 6.1 13.0 0.00 0.00 0.00 64 1007.8
20190917083016 55 298 6.1 13.9 0.00 0.00 0.00 64 1007.9
20190917074559 53 276 6.1 13.0 0.00 0.00 0.00 72 1008.1
20190917073554 53 305 5.2 12.2 0.00 0.00 0.00 77 1008.2
20190917072546 52 323 4.3 9.6 0.00 0.00 0.00 79 1008.2
20190917071542 51 306 5.2 10.4 0.00 0.00 0.00 80 1008.5
20190917070538 51 326 4.3 13.0 0.00 0.00 0.00 83 1008.4
20190917065535 50 232 2.6 6.1 0.00 0.00 0.00 86 1008.4
20190917064535 49 311 2.6 7.0 0.00 0.00 0.00 91 1008.4
20190917063528 48 323 4.3 7.8 0.00 0.00 0.00 93 1008.5
20190917062524 48 300 1.7 5.2 0.00 0.00 0.00 96 1008.7
20190917061520 47 312 2.6 6.1 0.00 0.00 0.00 98 1008.7
20190917060516 46 315 1.7 2.6 0.00 0.00 0.00 99 1008.7
20190917052557 46 79 1.7 6.1 0.00 0.00 0.00 97 1009.0
20190917051554 45 61 1.7 6.1 0.00 0.00 0.00 97 1009.0
20190917050550 45 300 0.9 4.3 0.00 0.00 0.00 97 1009.0
20190917045547 45 332 1.7 5.2 0.00 0.00 0.00 97 1009.1
20190917044543 45 94 0.0 2.6 0.00 0.00 0.00 97 1009.0
20190917043540 45 323 0.9 5.2 0.00 0.00 0.00 97 1009.0
20190917042534 44 90 1.7 4.3 0.00 0.00 0.00 97 1008.9
20190917041527 45 90 0.9 3.5 0.00 0.00 0.00 97 1009.0
20190917040523 45 90 0.0 2.6 0.00 0.00 0.00 97 1009.0
20190917035520 45 322 0.9 3.5 0.00 0.00 0.00 96 1009.0
20190917034516 45 90 0.9 2.6 0.00 0.00 0.00 95 1009.0
20190917030100 45 250 0.9 2.6 0.00 0.00 0.00 92 1009.2
20190917025056 45 347 0.9 4.3 0.00 0.00 0.00 91 1009.2
20190917024053 45 213 1.7 5.2 0.00 0.00 0.00 90 1009.2
20190917023050 45 90 0.9 2.6 0.00 0.00 0.00 89 1009.2
20190917022046 45 106 0.9 2.6 0.00 0.00 0.00 88 1009.2
20190917021042 45 330 1.7 4.3 0.00 0.00 0.00 87 1009.3
20190917020037 45 38 0.9 4.3 0.00 0.00 0.00 86 1009.3
20190917015033 45 299 0.9 5.2 0.00 0.00 0.00 85 1009.3
20190917014028 45 164 0.9 5.2 0.00 0.00 0.00 84 1009.2
20190917013022 46 135 0.0 3.5 0.00 0.00 0.00 83 1009.2
20190917012015 46 135 0.0 2.6 0.00 0.00 0.00 82 1009.3
20190917003058 47 314 2.6 5.2 0.00 0.00 0.00 82 1009.6
20190917002054 47 305 2.6 5.2 0.00 0.00 0.00 82 1009.6
20190917001051 47 315 2.6 5.2 0.00 0.00 0.00 82 1009.6
20190917000048 47 294 2.6 6.1 0.00 0.00 0.00 82 1009.6
20190916235045 47 311 1.7 6.1 0.00 0.00 0.00 82 1009.6
20190916234040 48 302 2.6 5.2 0.00 0.00 0.00 80 1009.6
20190916233037 48 4 2.6 7.8 0.00 0.00 0.00 79 1009.7
20190916232033 48 332 2.6 4.3 0.00 0.00 0.00 78 1009.7
20190916231030 48 315 2.6 5.2 0.00 0.00 0.00 76 1009.8
20190916230027 49 303 1.7 4.3 0.00 0.00 0.00 75 1009.7
20190916225023 49 329 2.6 5.2 0.00 0.00 0.00 74 1009.6